sensor_id;sensor_type;location;lat;lon;timestamp;pressure;altitude;pressure_sealevel;temperature;humidity
20039;BME280;21737;42.868;25.320;2023-12-20T00:01:06;97308.88;;;1.33;77.76
20039;BME280;21737;42.868;25.320;2023-12-20T00:03:32;97300.47;;;1.22;77.09
20039;BME280;21737;42.868;25.320;2023-12-20T00:05:58;97298.38;;;0.93;77.38
20039;BME280;21737;42.868;25.320;2023-12-20T00:08:24;97293.06;;;0.96;78.13
20039;BME280;21737;42.868;25.320;2023-12-20T00:10:51;97291.44;;;0.95;78.28
20039;BME280;21737;42.868;25.320;2023-12-20T00:13:17;97291.53;;;1.05;78.00
20039;BME280;21737;42.868;25.320;2023-12-20T00:15:43;97291.88;;;1.00;78.98
20039;BME280;21737;42.868;25.320;2023-12-20T00:18:09;97290.16;;;1.12;78.90
20039;BME280;21737;42.868;25.320;2023-12-20T00:20:34;97284.38;;;1.10;78.52
20039;BME280;21737;42.868;25.320;2023-12-20T00:23:01;97285.66;;;1.05;78.73
20039;BME280;21737;42.868;25.320;2023-12-20T00:25:27;97285.41;;;1.08;79.21
20039;BME280;21737;42.868;25.320;2023-12-20T00:27:53;97289.94;;;1.38;77.41
20039;BME280;21737;42.868;25.320;2023-12-20T00:30:19;97280.69;;;1.36;77.30
20039;BME280;21737;42.868;25.320;2023-12-20T00:32:45;97284.25;;;1.45;76.92
20039;BME280;21737;42.868;25.320;2023-12-20T00:35:14;97277.31;;;1.47;76.87
20039;BME280;21737;42.868;25.320;2023-12-20T00:37:42;97261.13;;;1.37;77.34
20039;BME280;21737;42.868;25.320;2023-12-20T00:40:09;97265.19;;;1.28;77.56
20039;BME280;21737;42.868;25.320;2023-12-20T00:42:35;97263.69;;;1.37;77.49
20039;BME280;21737;42.868;25.320;2023-12-20T00:45:01;97262.41;;;1.43;77.81
20039;BME280;21737;42.868;25.320;2023-12-20T00:47:28;97258.38;;;1.29;77.72
20039;BME280;21737;42.868;25.320;2023-12-20T00:49:54;97252.97;;;1.22;78.52
20039;BME280;21737;42.868;25.320;2023-12-20T00:52:20;97255.50;;;1.22;77.82
20039;BME280;21737;42.868;25.320;2023-12-20T00:54:47;97257.66;;;1.27;77.77
20039;BME280;21737;42.868;25.320;2023-12-20T00:57:14;97248.22;;;1.18;77.96
20039;BME280;21737;42.868;25.320;2023-12-20T00:59:40;97244.28;;;1.14;78.73
20039;BME280;21737;42.868;25.320;2023-12-20T01:02:06;97237.44;;;1.25;77.11
20039;BME280;21737;42.868;25.320;2023-12-20T01:04:32;97241.84;;;1.46;76.84
20039;BME280;21737;42.868;25.320;2023-12-20T01:06:58;97242.88;;;1.43;76.92
20039;BME280;21737;42.868;25.320;2023-12-20T01:09:24;97232.69;;;1.43;77.64
20039;BME280;21737;42.868;25.320;2023-12-20T01:11:52;97234.63;;;1.51;77.60
20039;BME280;21737;42.868;25.320;2023-12-20T01:14:18;97224.09;;;1.55;76.40
20039;BME280;21737;42.868;25.320;2023-12-20T01:16:44;97219.22;;;1.63;76.26
20039;BME280;21737;42.868;25.320;2023-12-20T01:19:11;97212.19;;;1.67;76.19
20039;BME280;21737;42.868;25.320;2023-12-20T01:21:37;97215.53;;;1.56;76.03
20039;BME280;21737;42.868;25.320;2023-12-20T01:24:03;97217.97;;;1.58;77.02
20039;BME280;21737;42.868;25.320;2023-12-20T01:26:30;97206.22;;;1.34;76.90
20039;BME280;21737;42.868;25.320;2023-12-20T01:28:56;97199.41;;;1.24;77.02
20039;BME280;21737;42.868;25.320;2023-12-20T01:31:22;97190.75;;;1.26;77.94
20039;BME280;21737;42.868;25.320;2023-12-20T01:33:48;97183.38;;;1.23;76.39
20039;BME280;21737;42.868;25.320;2023-12-20T01:36:14;97192.75;;;1.12;77.93
20039;BME280;21737;42.868;25.320;2023-12-20T01:38:40;97190.47;;;0.97;77.87
20039;BME280;21737;42.868;25.320;2023-12-20T01:41:06;97181.47;;;0.93;78.07
20039;BME280;21737;42.868;25.320;2023-12-20T01:43:33;97189.06;;;1.05;78.42
20039;BME280;21737;42.868;25.320;2023-12-20T01:45:59;97177.19;;;0.94;78.25
20039;BME280;21737;42.868;25.320;2023-12-20T01:48:27;97173.03;;;0.71;78.39
20039;BME280;21737;42.868;25.320;2023-12-20T01:50:54;97159.41;;;0.60;78.81
20039;BME280;21737;42.868;25.320;2023-12-20T01:53:21;97157.91;;;0.69;79.08
20039;BME280;21737;42.868;25.320;2023-12-20T01:55:50;97159.16;;;0.86;78.10
20039;BME280;21737;42.868;25.320;2023-12-20T01:58:18;97155.59;;;0.88;77.77
20039;BME280;21737;42.868;25.320;2023-12-20T02:00:45;97149.00;;;0.86;78.85
20039;BME280;21737;42.868;25.320;2023-12-20T02:03:11;97133.19;;;0.82;79.48
20039;BME280;21737;42.868;25.320;2023-12-20T02:05:38;97137.56;;;0.91;78.57
20039;BME280;21737;42.868;25.320;2023-12-20T02:08:06;97137.44;;;0.82;78.90
20039;BME280;21737;42.868;25.320;2023-12-20T02:10:33;97137.47;;;0.48;79.01
20039;BME280;21737;42.868;25.320;2023-12-20T02:12:58;97123.50;;;0.54;80.17
20039;BME280;21737;42.868;25.320;2023-12-20T02:15:24;97130.19;;;0.55;80.75
20039;BME280;21737;42.868;25.320;2023-12-20T02:17:51;97126.41;;;0.49;79.40
20039;BME280;21737;42.868;25.320;2023-12-20T02:20:18;97108.97;;;0.45;80.29
20039;BME280;21737;42.868;25.320;2023-12-20T02:22:45;97114.72;;;0.36;80.90
20039;BME280;21737;42.868;25.320;2023-12-20T02:25:11;97121.28;;;0.27;79.71
20039;BME280;21737;42.868;25.320;2023-12-20T02:27:37;97104.09;;;0.19;80.89
20039;BME280;21737;42.868;25.320;2023-12-20T02:30:03;97099.72;;;0.32;79.58
20039;BME280;21737;42.868;25.320;2023-12-20T02:32:28;97107.47;;;0.42;79.36
20039;BME280;21737;42.868;25.320;2023-12-20T02:34:55;97098.09;;;0.31;81.32
20039;BME280;21737;42.868;25.320;2023-12-20T02:37:21;97093.84;;;0.21;81.15
20039;BME280;21737;42.868;25.320;2023-12-20T02:39:48;97094.75;;;0.20;80.50
20039;BME280;21737;42.868;25.320;2023-12-20T02:42:14;97093.94;;;0.08;81.26
20039;BME280;21737;42.868;25.320;2023-12-20T02:44:41;97086.34;;;0.19;80.64
20039;BME280;21737;42.868;25.320;2023-12-20T02:47:06;97086.94;;;0.23;79.97
20039;BME280;21737;42.868;25.320;2023-12-20T02:49:33;97078.47;;;0.11;81.24
20039;BME280;21737;42.868;25.320;2023-12-20T02:52:00;97058.41;;;-0.03;81.50
20039;BME280;21737;42.868;25.320;2023-12-20T02:54:26;97061.03;;;-0.16;81.91
20039;BME280;21737;42.868;25.320;2023-12-20T02:56:53;97071.66;;;0.00;82.32
20039;BME280;21737;42.868;25.320;2023-12-20T02:59:18;97064.53;;;-0.06;82.23
20039;BME280;21737;42.868;25.320;2023-12-20T03:01:46;97063.72;;;-0.06;81.30
20039;BME280;21737;42.868;25.320;2023-12-20T03:04:13;97058.59;;;-0.17;81.00
20039;BME280;21737;42.868;25.320;2023-12-20T03:06:41;97057.31;;;-0.23;82.42
20039;BME280;21737;42.868;25.320;2023-12-20T03:09:19;97053.66;;;-0.30;81.83
20039;BME280;21737;42.868;25.320;2023-12-20T03:11:45;97040.94;;;-0.41;83.09
20039;BME280;21737;42.868;25.320;2023-12-20T03:14:12;97053.88;;;-0.33;83.39
20039;BME280;21737;42.868;25.320;2023-12-20T03:16:39;97055.22;;;-0.40;82.98
20039;BME280;21737;42.868;25.320;2023-12-20T03:19:06;97047.94;;;-0.56;82.15
20039;BME280;21737;42.868;25.320;2023-12-20T03:21:31;97052.78;;;-0.53;83.46
20039;BME280;21737;42.868;25.320;2023-12-20T03:23:57;97043.91;;;-0.58;83.61
20039;BME280;21737;42.868;25.320;2023-12-20T03:26:23;97048.25;;;-0.60;83.82
20039;BME280;21737;42.868;25.320;2023-12-20T03:28:49;97039.97;;;-0.62;83.11
20039;BME280;21737;42.868;25.320;2023-12-20T03:31:15;97028.63;;;-0.70;84.21
20039;BME280;21737;42.868;25.320;2023-12-20T03:33:41;97029.28;;;-0.55;83.27
20039;BME280;21737;42.868;25.320;2023-12-20T03:36:07;97026.41;;;-0.50;83.18
20039;BME280;21737;42.868;25.320;2023-12-20T03:38:35;97020.50;;;-0.62;83.05
20039;BME280;21737;42.868;25.320;2023-12-20T03:41:01;97017.09;;;-0.74;83.24
20039;BME280;21737;42.868;25.320;2023-12-20T03:43:27;97007.09;;;-0.75;83.47
20039;BME280;21737;42.868;25.320;2023-12-20T03:45:53;97008.94;;;-0.77;83.33
20039;BME280;21737;42.868;25.320;2023-12-20T03:48:19;97002.25;;;-0.78;82.75
20039;BME280;21737;42.868;25.320;2023-12-20T03:50:45;96999.78;;;-0.91;83.93
20039;BME280;21737;42.868;25.320;2023-12-20T03:53:11;97003.22;;;-0.92;84.38
20039;BME280;21737;42.868;25.320;2023-12-20T03:55:37;97003.06;;;-0.78;83.95
20039;BME280;21737;42.868;25.320;2023-12-20T03:58:03;97005.59;;;-0.78;83.92
20039;BME280;21737;42.868;25.320;2023-12-20T04:00:29;97005.50;;;-0.76;84.49
20039;BME280;21737;42.868;25.320;2023-12-20T04:02:55;97002.16;;;-0.77;83.07
20039;BME280;21737;42.868;25.320;2023-12-20T04:05:21;96998.22;;;-0.70;83.53
20039;BME280;21737;42.868;25.320;2023-12-20T04:07:47;96996.47;;;-0.80;84.42
20039;BME280;21737;42.868;25.320;2023-12-20T04:10:13;96991.53;;;-0.71;84.04
20039;BME280;21737;42.868;25.320;2023-12-20T04:12:39;96989.03;;;-0.48;83.00
20039;BME280;21737;42.868;25.320;2023-12-20T04:15:05;96980.28;;;-0.55;83.80
20039;BME280;21737;42.868;25.320;2023-12-20T04:17:35;96989.44;;;-0.30;82.74
20039;BME280;21737;42.868;25.320;2023-12-20T04:20:01;96979.06;;;-0.27;82.92
20039;BME280;21737;42.868;25.320;2023-12-20T04:22:27;96981.22;;;-0.23;84.10
20039;BME280;21737;42.868;25.320;2023-12-20T04:24:53;96980.09;;;0.04;82.38
20039;BME280;21737;42.868;25.320;2023-12-20T04:27:19;96966.50;;;-0.07;82.86
20039;BME280;21737;42.868;25.320;2023-12-20T04:29:44;96970.53;;;-0.15;81.98
20039;BME280;21737;42.868;25.320;2023-12-20T04:32:10;96967.19;;;-0.16;82.45
20039;BME280;21737;42.868;25.320;2023-12-20T04:34:36;96975.25;;;-0.22;83.10
20039;BME280;21737;42.868;25.320;2023-12-20T04:37:02;96969.38;;;-0.11;82.58
20039;BME280;21737;42.868;25.320;2023-12-20T04:39:34;96966.84;;;-0.11;82.49
20039;BME280;21737;42.868;25.320;2023-12-20T04:42:01;96967.19;;;-0.16;82.45
20039;BME280;21737;42.868;25.320;2023-12-20T04:44:27;96964.41;;;-0.13;82.83
20039;BME280;21737;42.868;25.320;2023-12-20T04:46:53;96956.91;;;-0.14;82.17
20039;BME280;21737;42.868;25.320;2023-12-20T04:49:21;96965.22;;;-0.23;82.39
20039;BME280;21737;42.868;25.320;2023-12-20T04:51:46;96958.88;;;-0.18;83.05
20039;BME280;21737;42.868;25.320;2023-12-20T04:54:12;96964.28;;;-0.22;82.41
20039;BME280;21737;42.868;25.320;2023-12-20T04:56:41;96963.47;;;-0.23;83.10
20039;BME280;21737;42.868;25.320;2023-12-20T04:59:08;96954.41;;;-0.25;83.07
20039;BME280;21737;42.868;25.320;2023-12-20T05:01:34;96945.28;;;-0.28;82.28
20039;BME280;21737;42.868;25.320;2023-12-20T05:04:00;96954.50;;;-0.27;81.93
20039;BME280;21737;42.868;25.320;2023-12-20T05:06:31;96948.50;;;-0.37;81.93
20039;BME280;21737;42.868;25.320;2023-12-20T05:08:57;96942.59;;;-0.49;83.73
20039;BME280;21737;42.868;25.320;2023-12-20T05:11:23;96944.00;;;-0.45;82.76
20039;BME280;21737;42.868;25.320;2023-12-20T05:13:50;96944.00;;;-0.56;82.55
20039;BME280;21737;42.868;25.320;2023-12-20T05:16:16;96944.00;;;-0.56;83.00
20039;BME280;21737;42.868;25.320;2023-12-20T05:18:44;96938.47;;;-0.61;83.59
20039;BME280;21737;42.868;25.320;2023-12-20T05:21:11;96935.22;;;-0.63;82.87
20039;BME280;21737;42.868;25.320;2023-12-20T05:23:37;96934.09;;;-0.59;83.47
20039;BME280;21737;42.868;25.320;2023-12-20T05:26:03;96934.31;;;-0.51;83.20
20039;BME280;21737;42.868;25.320;2023-12-20T05:28:29;96929.38;;;-0.41;83.24
20039;BME280;21737;42.868;25.320;2023-12-20T05:30:55;96928.31;;;-0.39;82.20
20039;BME280;21737;42.868;25.320;2023-12-20T05:33:21;96926.34;;;-0.46;82.88
20039;BME280;21737;42.868;25.320;2023-12-20T05:35:47;96924.03;;;-0.49;82.55
20039;BME280;21737;42.868;25.320;2023-12-20T05:38:12;96927.06;;;-0.55;82.83
20039;BME280;21737;42.868;25.320;2023-12-20T05:40:38;96923.25;;;-0.61;82.88
20039;BME280;21737;42.868;25.320;2023-12-20T05:43:04;96922.56;;;-0.63;82.24
20039;BME280;21737;42.868;25.320;2023-12-20T05:45:30;96916.44;;;-0.60;82.87
20039;BME280;21737;42.868;25.320;2023-12-20T05:47:56;96915.28;;;-0.68;83.69
20039;BME280;21737;42.868;25.320;2023-12-20T05:50:23;96910.91;;;-0.65;83.40
20039;BME280;21737;42.868;25.320;2023-12-20T05:52:48;96905.38;;;-0.59;83.28
20039;BME280;21737;42.868;25.320;2023-12-20T05:55:14;96895.81;;;-0.67;83.77
20039;BME280;21737;42.868;25.320;2023-12-20T05:57:40;96900.78;;;-0.65;83.61
20039;BME280;21737;42.868;25.320;2023-12-20T06:00:09;96900.69;;;-0.53;83.03
20039;BME280;21737;42.868;25.320;2023-12-20T06:02:35;96903.22;;;-0.53;82.48
20039;BME280;21737;42.868;25.320;2023-12-20T06:05:04;96893.75;;;-0.40;83.54
20039;BME280;21737;42.868;25.320;2023-12-20T06:07:31;96903.91;;;-0.28;82.06
20039;BME280;21737;42.868;25.320;2023-12-20T06:09:57;96905.41;;;-0.26;81.60
20039;BME280;21737;42.868;25.320;2023-12-20T06:12:23;96905.84;;;-0.21;82.79
20039;BME280;21737;42.868;25.320;2023-12-20T06:14:49;96895.56;;;-0.19;81.75
20039;BME280;21737;42.868;25.320;2023-12-20T06:17:15;96897.31;;;-0.09;82.21
20039;BME280;21737;42.868;25.320;2023-12-20T06:19:42;96895.66;;;0.02;81.05
20039;BME280;21737;42.868;25.320;2023-12-20T06:22:10;96897.03;;;0.06;81.65
20039;BME280;21737;42.868;25.320;2023-12-20T06:24:36;96891.50;;;0.12;82.24
20039;BME280;21737;42.868;25.320;2023-12-20T06:27:02;96890.22;;;0.17;81.37
20039;BME280;21737;42.868;25.320;2023-12-20T06:29:28;96889.88;;;0.11;80.49
20039;BME280;21737;42.868;25.320;2023-12-20T06:31:54;96885.72;;;0.21;81.48
20039;BME280;21737;42.868;25.320;2023-12-20T06:34:19;96879.81;;;0.20;80.47
20039;BME280;21737;42.868;25.320;2023-12-20T06:36:45;96897.53;;;0.31;80.42
20039;BME280;21737;42.868;25.320;2023-12-20T06:39:11;96886.69;;;0.29;80.31
20039;BME280;21737;42.868;25.320;2023-12-20T06:41:38;96884.25;;;0.39;80.74
20039;BME280;21737;42.868;25.320;2023-12-20T06:44:05;96878.69;;;0.45;79.49
20039;BME280;21737;42.868;25.320;2023-12-20T06:46:30;96874.03;;;0.50;80.47
20039;BME280;21737;42.868;25.320;2023-12-20T06:48:56;96874.56;;;0.44;79.67
20039;BME280;21737;42.868;25.320;2023-12-20T06:51:22;96874.25;;;0.58;80.19
20039;BME280;21737;42.868;25.320;2023-12-20T06:53:54;96872.59;;;0.68;80.25
20039;BME280;21737;42.868;25.320;2023-12-20T06:56:19;96871.91;;;0.87;79.80
20039;BME280;21737;42.868;25.320;2023-12-20T06:58:46;96877.94;;;0.86;79.52
20039;BME280;21737;42.868;25.320;2023-12-20T07:01:15;96875.13;;;0.89;79.88
20039;BME280;21737;42.868;25.320;2023-12-20T07:03:42;96867.75;;;0.86;79.98
20039;BME280;21737;42.868;25.320;2023-12-20T07:06:10;96862.69;;;0.86;79.29
20039;BME280;21737;42.868;25.320;2023-12-20T07:08:37;96866.47;;;0.92;79.48
20039;BME280;21737;42.868;25.320;2023-12-20T07:11:03;96861.63;;;0.89;79.54
20039;BME280;21737;42.868;25.320;2023-12-20T07:13:30;96859.34;;;0.86;80.29
20039;BME280;21737;42.868;25.320;2023-12-20T07:15:58;96859.28;;;0.97;79.09
20039;BME280;21737;42.868;25.320;2023-12-20T07:18:25;96856.22;;;1.03;79.18
20039;BME280;21737;42.868;25.320;2023-12-20T07:20:50;96850.06;;;1.06;79.67
20039;BME280;21737;42.868;25.320;2023-12-20T07:23:16;96850.81;;;1.17;78.80
20039;BME280;21737;42.868;25.320;2023-12-20T07:25:43;96846.97;;;1.23;79.02
20039;BME280;21737;42.868;25.320;2023-12-20T07:28:09;96840.56;;;1.28;78.52
20039;BME280;21737;42.868;25.320;2023-12-20T07:30:35;96849.16;;;1.37;78.95
20039;BME280;21737;42.868;25.320;2023-12-20T07:33:02;96833.81;;;1.48;78.09
20039;BME280;21737;42.868;25.320;2023-12-20T07:35:29;96834.22;;;1.53;78.08
20039;BME280;21737;42.868;25.320;2023-12-20T07:37:55;96828.25;;;1.74;77.92
20039;BME280;21737;42.868;25.320;2023-12-20T07:40:22;96824.16;;;1.92;76.79
20039;BME280;21737;42.868;25.320;2023-12-20T07:42:51;96820.66;;;2.02;76.04
20039;BME280;21737;42.868;25.320;2023-12-20T07:45:17;96828.31;;;1.93;76.70
20039;BME280;21737;42.868;25.320;2023-12-20T07:47:44;96825.88;;;2.01;77.31
20039;BME280;21737;42.868;25.320;2023-12-20T07:50:10;96808.38;;;2.17;76.17
20039;BME280;21737;42.868;25.320;2023-12-20T07:52:36;96809.28;;;2.26;76.63
20039;BME280;21737;42.868;25.320;2023-12-20T07:55:03;96829.50;;;2.76;74.38
20039;BME280;21737;42.868;25.320;2023-12-20T07:57:30;96828.59;;;3.51;71.87
20039;BME280;21737;42.868;25.320;2023-12-20T08:00:06;96812.31;;;5.45;64.69
20039;BME280;21737;42.868;25.320;2023-12-20T08:02:31;96812.09;;;7.43;57.59
20039;BME280;21737;42.868;25.320;2023-12-20T08:04:57;96806.38;;;8.57;53.23
20039;BME280;21737;42.868;25.320;2023-12-20T08:07:23;96802.88;;;8.50;52.75
20039;BME280;21737;42.868;25.320;2023-12-20T08:09:49;96793.94;;;8.61;52.96
20039;BME280;21737;42.868;25.320;2023-12-20T08:12:17;96797.41;;;9.35;51.27
20039;BME280;21737;42.868;25.320;2023-12-20T08:14:44;96785.44;;;10.29;48.01
20039;BME280;21737;42.868;25.320;2023-12-20T08:17:09;96787.47;;;11.86;44.61
20039;BME280;21737;42.868;25.320;2023-12-20T08:19:35;96788.56;;;12.90;40.32
20039;BME280;21737;42.868;25.320;2023-12-20T08:22:01;96792.69;;;14.90;36.39
20039;BME280;21737;42.868;25.320;2023-12-20T08:24:29;96792.56;;;16.01;34.72
20039;BME280;21737;42.868;25.320;2023-12-20T08:26:55;96785.03;;;15.38;34.33
20039;BME280;21737;42.868;25.320;2023-12-20T08:29:22;96783.22;;;14.14;36.14
20039;BME280;21737;42.868;25.320;2023-12-20T08:31:52;96773.66;;;14.40;36.81
20039;BME280;21737;42.868;25.320;2023-12-20T08:34:19;96773.06;;;13.68;38.53
20039;BME280;21737;42.868;25.320;2023-12-20T08:36:47;96766.53;;;11.33;43.14
20039;BME280;21737;42.868;25.320;2023-12-20T08:39:13;96764.22;;;10.54;46.67
20039;BME280;21737;42.868;25.320;2023-12-20T08:41:39;96755.19;;;10.44;47.68
20039;BME280;21737;42.868;25.320;2023-12-20T08:44:05;96755.69;;;9.10;50.68
20039;BME280;21737;42.868;25.320;2023-12-20T08:46:31;96745.75;;;8.55;52.96
20039;BME280;21737;42.868;25.320;2023-12-20T08:48:57;96730.28;;;8.17;54.52
20039;BME280;21737;42.868;25.320;2023-12-20T08:51:23;96730.91;;;7.96;55.63
20039;BME280;21737;42.868;25.320;2023-12-20T08:53:51;96720.25;;;9.12;52.00
20039;BME280;21737;42.868;25.320;2023-12-20T08:56:17;96723.53;;;11.73;45.15
20039;BME280;21737;42.868;25.320;2023-12-20T08:58:45;96712.97;;;13.78;39.52
20039;BME280;21737;42.868;25.320;2023-12-20T09:01:11;96705.66;;;15.84;35.10
20039;BME280;21737;42.868;25.320;2023-12-20T09:03:38;96706.09;;;16.22;34.55
20039;BME280;21737;42.868;25.320;2023-12-20T09:06:04;96700.91;;;13.58;39.05
20039;BME280;21737;42.868;25.320;2023-12-20T09:08:31;96699.91;;;13.53;39.94
20039;BME280;21737;42.868;25.320;2023-12-20T09:10:58;96695.69;;;14.53;38.07
20039;BME280;21737;42.868;25.320;2023-12-20T09:13:24;96685.28;;;18.13;32.28
20039;BME280;21737;42.868;25.320;2023-12-20T09:15:56;96682.22;;;19.97;29.13
20039;BME280;21737;42.868;25.320;2023-12-20T09:18:22;96680.41;;;21.86;25.24
20039;BME280;21737;42.868;25.320;2023-12-20T09:20:48;96668.78;;;20.20;27.29
20039;BME280;21737;42.868;25.320;2023-12-20T09:23:15;96668.31;;;17.02;32.39
20039;BME280;21737;42.868;25.320;2023-12-20T09:25:42;96660.22;;;15.68;35.67
20039;BME280;21737;42.868;25.320;2023-12-20T09:28:07;96669.53;;;14.23;39.31
20039;BME280;21737;42.868;25.320;2023-12-20T09:30:34;96661.31;;;14.01;38.72
20039;BME280;21737;42.868;25.320;2023-12-20T09:33:03;96662.78;;;14.40;39.14
20039;BME280;21737;42.868;25.320;2023-12-20T09:35:31;96649.03;;;15.19;38.48
20039;BME280;21737;42.868;25.320;2023-12-20T09:37:56;96654.19;;;17.66;32.62
20039;BME280;21737;42.868;25.320;2023-12-20T09:40:26;96648.59;;;17.62;32.25
20039;BME280;21737;42.868;25.320;2023-12-20T09:42:58;96642.81;;;16.92;34.18
20039;BME280;21737;42.868;25.320;2023-12-20T09:45:30;96633.41;;;18.93;30.90
20039;BME280;21737;42.868;25.320;2023-12-20T09:47:58;96635.44;;;19.84;29.29
20039;BME280;21737;42.868;25.320;2023-12-20T09:50:24;96627.06;;;19.11;29.88
20039;BME280;21737;42.868;25.320;2023-12-20T09:52:52;96611.31;;;16.23;34.00
20039;BME280;21737;42.868;25.320;2023-12-20T09:55:20;96613.66;;;15.78;36.09
20039;BME280;21737;42.868;25.320;2023-12-20T09:57:47;96603.97;;;13.53;41.73
20039;BME280;21737;42.868;25.320;2023-12-20T10:00:14;96604.41;;;11.81;46.16
20039;BME280;21737;42.868;25.320;2023-12-20T10:05:16;96599.63;;;9.51;51.32
20039;BME280;21737;42.868;25.320;2023-12-20T10:07:45;96607.59;;;8.99;53.09
20039;BME280;21737;42.868;25.320;2023-12-20T10:10:13;96599.66;;;8.50;54.42
20039;BME280;21737;42.868;25.320;2023-12-20T10:12:39;96584.41;;;8.48;56.60
20039;BME280;21737;42.868;25.320;2023-12-20T10:15:06;96573.47;;;8.32;56.84
20039;BME280;21737;42.868;25.320;2023-12-20T10:17:32;96569.66;;;8.57;57.86
20039;BME280;21737;42.868;25.320;2023-12-20T10:19:58;96567.88;;;8.43;55.21
20039;BME280;21737;42.868;25.320;2023-12-20T10:22:24;96554.06;;;8.44;56.40
20039;BME280;21737;42.868;25.320;2023-12-20T10:24:50;96557.53;;;8.36;54.75
20039;BME280;21737;42.868;25.320;2023-12-20T10:27:18;96548.56;;;8.47;55.17
20039;BME280;21737;42.868;25.320;2023-12-20T10:29:45;96543.09;;;8.35;56.38
20039;BME280;21737;42.868;25.320;2023-12-20T10:32:29;96528.59;;;8.49;56.60
20039;BME280;21737;42.868;25.320;2023-12-20T10:34:55;96520.53;;;8.23;58.28
20039;BME280;21737;42.868;25.320;2023-12-20T10:37:22;96528.69;;;8.26;59.00
20039;BME280;21737;42.868;25.320;2023-12-20T10:39:54;96521.09;;;8.33;58.74
20039;BME280;21737;42.868;25.320;2023-12-20T10:42:26;96525.50;;;8.24;58.84
20039;BME280;21737;42.868;25.320;2023-12-20T10:44:52;96524.88;;;8.22;58.75
20039;BME280;21737;42.868;25.320;2023-12-20T10:47:24;96517.16;;;8.22;57.74
20039;BME280;21737;42.868;25.320;2023-12-20T10:49:52;96511.25;;;8.72;57.59
20039;BME280;21737;42.868;25.320;2023-12-20T10:52:23;96517.59;;;8.91;58.32
20039;BME280;21737;42.868;25.320;2023-12-20T10:54:50;96507.13;;;8.93;57.44
20039;BME280;21737;42.868;25.320;2023-12-20T10:57:18;96512.88;;;9.16;55.65
20039;BME280;21737;42.868;25.320;2023-12-20T10:59:45;96510.44;;;9.29;56.58
20039;BME280;21737;42.868;25.320;2023-12-20T11:02:13;96516.47;;;9.36;54.66
20039;BME280;21737;42.868;25.320;2023-12-20T11:07:36;96505.91;;;9.80;51.12
20039;BME280;21737;42.868;25.320;2023-12-20T11:12:44;96493.38;;;9.77;52.36
20039;BME280;21737;42.868;25.320;2023-12-20T11:15:14;96487.28;;;9.85;52.86
20039;BME280;21737;42.868;25.320;2023-12-20T11:17:45;96491.91;;;9.96;52.47
20039;BME280;21737;42.868;25.320;2023-12-20T11:20:12;96481.09;;;9.79;53.24
20039;BME280;21737;42.868;25.320;2023-12-20T11:22:39;96470.56;;;9.74;53.15
20039;BME280;21737;42.868;25.320;2023-12-20T11:25:17;96470.66;;;9.87;52.30
20039;BME280;21737;42.868;25.320;2023-12-20T11:27:43;96468.44;;;9.84;52.64
20039;BME280;21737;42.868;25.320;2023-12-20T11:30:10;96461.19;;;9.67;53.14
20039;BME280;21737;42.868;25.320;2023-12-20T11:32:37;96456.63;;;9.62;53.92
20039;BME280;21737;42.868;25.320;2023-12-20T11:37:38;96446.06;;;9.57;54.19
20039;BME280;21737;42.868;25.320;2023-12-20T11:40:08;96442.13;;;9.61;55.29
20039;BME280;21737;42.868;25.320;2023-12-20T11:42:49;96434.53;;;9.53;53.84
20039;BME280;21737;42.868;25.320;2023-12-20T11:45:18;96434.03;;;9.64;54.34
20039;BME280;21737;42.868;25.320;2023-12-20T11:47:50;96430.53;;;9.78;55.14
20039;BME280;21737;42.868;25.320;2023-12-20T11:50:16;96429.59;;;9.86;56.52
20039;BME280;21737;42.868;25.320;2023-12-20T11:52:42;96419.53;;;9.98;55.64
20039;BME280;21737;42.868;25.320;2023-12-20T11:55:08;96408.13;;;10.20;54.15
20039;BME280;21737;42.868;25.320;2023-12-20T11:57:34;96417.75;;;10.46;54.39
20039;BME280;21737;42.868;25.320;2023-12-20T12:00:03;96411.66;;;10.67;53.99
20039;BME280;21737;42.868;25.320;2023-12-20T12:02:41;96403.13;;;10.79;52.24
20039;BME280;21737;42.868;25.320;2023-12-20T12:05:11;96398.59;;;10.88;53.57
20039;BME280;21737;42.868;25.320;2023-12-20T12:07:37;96393.41;;;10.95;53.48
20039;BME280;21737;42.868;25.320;2023-12-20T12:10:05;96387.66;;;10.93;52.77
20039;BME280;21737;42.868;25.320;2023-12-20T12:12:39;96379.09;;;10.92;54.94
20039;BME280;21737;42.868;25.320;2023-12-20T12:15:05;96384.41;;;10.38;54.99
20039;BME280;21737;42.868;25.320;2023-12-20T12:17:32;96377.69;;;10.02;58.81
20039;BME280;21737;42.868;25.320;2023-12-20T12:20:05;96373.91;;;10.39;55.90
20039;BME280;21737;42.868;25.320;2023-12-20T12:22:32;96369.13;;;10.49;54.82
20039;BME280;21737;42.868;25.320;2023-12-20T12:25:10;96369.94;;;10.70;51.62
20039;BME280;21737;42.868;25.320;2023-12-20T12:27:36;96360.22;;;10.65;51.83
20039;BME280;21737;42.868;25.320;2023-12-20T12:30:05;96365.78;;;10.55;53.31
20039;BME280;21737;42.868;25.320;2023-12-20T12:32:33;96362.13;;;10.23;51.83
20039;BME280;21737;42.868;25.320;2023-12-20T12:34:59;96346.47;;;10.25;51.88
20039;BME280;21737;42.868;25.320;2023-12-20T12:37:39;96357.75;;;10.24;53.49
20039;BME280;21737;42.868;25.320;2023-12-20T12:40:07;96352.13;;;10.07;52.64
20039;BME280;21737;42.868;25.320;2023-12-20T12:42:36;96350.75;;;10.11;50.87
20039;BME280;21737;42.868;25.320;2023-12-20T12:45:03;96341.03;;;10.07;51.50
20039;BME280;21737;42.868;25.320;2023-12-20T12:47:30;96341.16;;;9.92;52.78
20039;BME280;21737;42.868;25.320;2023-12-20T12:50:02;96330.44;;;9.47;56.07
20039;BME280;21737;42.868;25.320;2023-12-20T12:52:30;96346.47;;;9.36;56.94
20039;BME280;21737;42.868;25.320;2023-12-20T12:54:57;96332.00;;;9.35;57.96
20039;BME280;21737;42.868;25.320;2023-12-20T12:57:25;96341.63;;;9.27;58.79
20039;BME280;21737;42.868;25.320;2023-12-20T12:59:51;96339.78;;;9.14;57.00
20039;BME280;21737;42.868;25.320;2023-12-20T13:02:17;96343.94;;;9.15;58.50
20039;BME280;21737;42.868;25.320;2023-12-20T13:04:43;96342.88;;;9.03;59.65